createdAt,value
2016-12-05T00:00:37.790Z,0.29
2016-12-05T00:01:38.587Z,0.28
2016-12-05T00:02:39.231Z,0.25
2016-12-05T00:03:39.927Z,0.12
2016-12-05T00:04:40.679Z,0.16
2016-12-05T00:05:41.314Z,0.18
2016-12-05T00:06:42.155Z,0.18
2016-12-05T00:07:42.921Z,0.15
2016-12-05T00:08:43.548Z,0.23
2016-12-05T00:09:44.167Z,0.12
2016-12-05T00:10:44.780Z,0.23
2016-12-05T00:11:45.419Z,0.12
2016-12-05T00:12:46.063Z,0.12
2016-12-05T00:13:46.683Z,0.11
2016-12-05T00:14:47.304Z,0.08
2016-12-05T00:15:47.930Z,0.05
2016-12-05T00:16:48.558Z,0.04
2016-12-05T00:17:49.179Z,0.11
2016-12-05T00:18:49.790Z,0.07
2016-12-05T00:19:50.412Z,0.18
2016-12-05T00:20:51.043Z,0.12
2016-12-05T00:21:51.671Z,0.08
2016-12-05T00:22:52.290Z,0.21
2016-12-05T00:23:52.921Z,0.05
2016-12-05T00:24:53.518Z,0.1
2016-12-05T00:25:54.123Z,0.15
2016-12-05T00:26:54.740Z,0.08
2016-12-05T00:27:55.350Z,0.12
2016-12-05T00:28:55.960Z,0.19
2016-12-05T00:29:56.591Z,0.1
2016-12-05T00:30:57.205Z,0.04
2016-12-05T00:31:57.856Z,0.18
2016-12-05T00:32:58.532Z,0.15
2016-12-05T00:33:59.193Z,0.11
2016-12-05T00:34:59.815Z,0.1
2016-12-05T00:36:00.440Z,0.18
2016-12-05T00:37:01.086Z,0.11
2016-12-05T00:38:01.757Z,0.16
2016-12-05T00:39:02.379Z,0.07
2016-12-05T00:40:03.002Z,0.16
2016-12-05T00:41:03.611Z,0.1
2016-12-05T00:42:04.223Z,0.08
2016-12-05T00:43:04.838Z,0.07
2016-12-05T00:44:05.443Z,0.15
2016-12-05T00:45:06.096Z,0.15
2016-12-05T00:46:06.701Z,0.1
2016-12-05T00:47:07.308Z,0.1
2016-12-05T00:48:07.954Z,0.08
2016-12-05T00:49:08.591Z,0.11
2016-12-05T00:50:09.201Z,0.1
2016-12-05T00:51:09.812Z,0.08
2016-12-05T00:52:10.422Z,0.08
2016-12-05T00:53:11.047Z,0.11
2016-12-05T00:54:11.651Z,0.05
2016-12-05T00:55:12.287Z,0.11
2016-12-05T00:56:12.935Z,0.05
2016-12-05T00:57:13.541Z,0.01
2016-12-05T00:58:14.156Z,0.07
2016-12-05T00:59:14.777Z,0.04
2016-12-05T01:00:15.383Z,-0.03
2016-12-05T01:01:16.009Z,-0.1
2016-12-05T01:02:16.627Z,0
2016-12-05T01:03:17.265Z,-0.1
2016-12-05T01:04:17.897Z,-0.08
2016-12-05T01:05:18.511Z,-0.06
2016-12-05T01:06:19.130Z,-0.08
2016-12-05T01:07:19.750Z,-0.07
2016-12-05T01:08:20.394Z,-0.07
2016-12-05T01:09:21.011Z,-0.06
2016-12-05T01:10:21.636Z,-0.1
2016-12-05T01:11:22.343Z,-0.15
2016-12-05T01:12:22.990Z,-0.11
2016-12-05T01:13:23.614Z,-0.07
2016-12-05T01:14:24.245Z,-0.07
2016-12-05T01:15:24.859Z,-0.11
2016-12-05T01:16:25.492Z,-0.14
2016-12-05T01:17:26.113Z,-0.13
2016-12-05T01:18:26.737Z,-0.08
2016-12-05T01:19:27.348Z,-0.07
2016-12-05T01:20:27.970Z,-0.13
2016-12-05T01:21:28.594Z,-0.08
2016-12-05T01:22:29.215Z,-0.14
2016-12-05T01:23:29.829Z,-0.23
2016-12-05T01:24:30.450Z,-0.2
2016-12-05T01:25:31.082Z,-0.11
2016-12-05T01:26:31.718Z,-0.17
2016-12-05T01:27:32.347Z,-0.25
2016-12-05T01:28:32.974Z,-0.31
2016-12-05T01:29:33.602Z,-0.29
2016-12-05T01:30:34.221Z,-0.26
2016-12-05T01:31:34.865Z,-0.26
2016-12-05T01:32:35.486Z,-0.26
2016-12-05T01:33:36.146Z,-0.26
2016-12-05T01:34:36.752Z,-0.28
2016-12-05T01:35:37.397Z,-0.32
2016-12-05T01:36:38.023Z,-0.29
2016-12-05T01:37:38.659Z,-0.36
2016-12-05T01:38:39.299Z,-0.34
2016-12-05T01:39:39.906Z,-0.36
2016-12-05T01:40:40.519Z,-0.38
2016-12-05T01:41:41.149Z,-0.38
2016-12-05T01:42:41.792Z,-0.31
2016-12-05T01:43:42.420Z,-0.34
2016-12-05T01:44:43.030Z,-0.34
2016-12-05T01:45:43.652Z,-0.46
2016-12-05T01:46:44.272Z,-0.39
2016-12-05T01:47:44.918Z,-0.38
2016-12-05T01:48:45.547Z,-0.36
2016-12-05T01:49:46.200Z,-0.43
2016-12-05T01:50:46.863Z,-0.39
2016-12-05T01:51:47.467Z,-0.39
2016-12-05T01:52:48.094Z,-0.38
2016-12-05T01:53:48.725Z,-0.35
2016-12-05T01:54:49.358Z,-0.29
2016-12-05T01:55:50.004Z,-0.46
2016-12-05T01:56:50.614Z,-0.32
2016-12-05T01:57:51.237Z,-0.38
2016-12-05T01:58:51.855Z,-0.39
2016-12-05T01:59:52.476Z,-0.38
2016-12-05T02:00:53.088Z,-0.39
2016-12-05T02:01:53.708Z,-0.38
2016-12-05T02:02:54.337Z,-0.44
2016-12-05T02:03:54.964Z,-0.53
2016-12-05T02:04:55.575Z,-0.46
2016-12-05T02:05:56.196Z,-0.54
2016-12-05T02:06:56.816Z,-0.61
2016-12-05T02:07:57.443Z,-0.56
2016-12-05T02:08:58.065Z,-0.43
2016-12-05T02:09:58.687Z,-0.57
2016-12-05T02:10:59.304Z,-0.52
2016-12-05T02:11:59.920Z,-0.49
2016-12-05T02:13:07.116Z,-0.54
2016-12-05T02:14:07.733Z,-0.61
2016-12-05T02:15:08.347Z,-0.61
2016-12-05T02:16:08.973Z,-0.59
2016-12-05T02:17:10.093Z,-0.61
2016-12-05T02:18:10.705Z,-0.59
2016-12-05T02:19:11.335Z,-0.57
2016-12-05T02:20:11.959Z,-0.59
2016-12-05T02:21:12.580Z,-0.64
2016-12-05T02:22:13.207Z,-0.71
2016-12-05T02:23:13.829Z,-0.68
2016-12-05T02:24:14.447Z,-0.74
2016-12-05T02:25:15.056Z,-0.72
2016-12-05T02:26:15.681Z,-0.78
2016-12-05T02:27:16.300Z,-0.72
2016-12-05T02:28:16.927Z,-0.78
2016-12-05T02:29:17.544Z,-0.78
2016-12-05T02:30:18.168Z,-0.78
2016-12-05T02:31:18.779Z,-0.75
2016-12-05T02:32:19.403Z,-0.74
2016-12-05T02:33:20.036Z,-0.74
2016-12-05T02:34:20.655Z,-0.83
2016-12-05T02:35:21.283Z,-0.85
2016-12-05T02:36:21.896Z,-0.86
2016-12-05T02:37:22.517Z,-0.89
2016-12-05T02:38:23.132Z,-0.83
2016-12-05T02:39:23.746Z,-0.82
2016-12-05T02:40:24.363Z,-0.8
2016-12-05T02:41:24.980Z,-0.82
2016-12-05T02:42:25.588Z,-0.77
2016-12-05T02:43:26.205Z,-0.68
2016-12-05T02:44:26.818Z,-0.7
2016-12-05T02:45:27.449Z,-0.74
2016-12-05T02:46:28.084Z,-0.78
2016-12-05T02:47:28.786Z,-0.78
2016-12-05T02:48:30.258Z,-0.78
2016-12-05T02:49:30.880Z,-0.72
2016-12-05T02:50:31.531Z,-0.78
2016-12-05T02:51:32.166Z,-0.9
2016-12-05T02:52:32.797Z,-0.89
2016-12-05T02:53:33.426Z,-0.82
2016-12-05T02:54:34.033Z,-0.86
2016-12-05T02:55:34.651Z,-0.85
2016-12-05T02:56:35.280Z,-0.83
2016-12-05T02:57:35.901Z,-0.96
2016-12-05T02:58:36.534Z,-0.94
2016-12-05T02:59:37.157Z,-0.91
2016-12-05T03:00:37.816Z,-0.89
2016-12-05T03:01:38.497Z,-0.9
2016-12-05T03:02:39.108Z,-0.93
2016-12-05T03:03:39.734Z,-0.96
2016-12-05T03:04:40.370Z,-0.89
2016-12-05T03:05:41.022Z,-0.99
2016-12-05T03:06:41.647Z,-0.97
2016-12-05T03:07:42.268Z,-0.99
2016-12-05T03:08:42.883Z,-0.99
2016-12-05T03:09:43.498Z,-0.94
2016-12-05T03:10:44.111Z,-1.02
2016-12-05T03:11:44.741Z,-1.02
2016-12-05T03:12:45.363Z,-1.09
2016-12-05T03:13:45.990Z,-1.08
2016-12-05T03:14:46.614Z,-1.04
2016-12-05T03:15:47.239Z,-1.04
2016-12-05T03:16:47.860Z,-1.12
2016-12-05T03:17:48.468Z,-1.05
2016-12-05T03:18:49.094Z,-1.09
2016-12-05T03:19:49.711Z,-1.09
2016-12-05T03:20:50.334Z,-1.12
2016-12-05T03:21:50.962Z,-1.11
2016-12-05T03:22:51.567Z,-1.14
2016-12-05T03:23:52.196Z,-1.11
2016-12-05T03:24:52.818Z,-1.09
2016-12-05T03:25:53.427Z,-0.99
2016-12-05T03:26:54.048Z,-1.07
2016-12-05T03:27:54.697Z,-1.02
2016-12-05T03:28:55.308Z,-1.01
2016-12-05T03:29:55.922Z,-1.12
2016-12-05T03:30:56.557Z,-1.09
2016-12-05T03:31:57.157Z,-1.14
2016-12-05T03:32:57.782Z,-1.22
2016-12-05T03:33:58.426Z,-1.17
2016-12-05T03:34:59.041Z,-1.29
2016-12-05T03:35:59.657Z,-1.23
2016-12-05T03:37:00.271Z,-1.23
2016-12-05T03:38:00.886Z,-1.26
2016-12-05T03:39:01.505Z,-1.09
2016-12-05T03:40:02.149Z,-1.26
2016-12-05T03:41:02.762Z,-1.14
2016-12-05T03:42:03.404Z,-1.19
2016-12-05T03:43:04.011Z,-1.11
2016-12-05T03:44:04.623Z,-1.09
2016-12-05T03:45:05.238Z,-1.2
2016-12-05T03:46:05.864Z,-1.23
2016-12-05T03:47:06.485Z,-1.2
2016-12-05T03:48:07.114Z,-1.27
2016-12-05T03:49:07.730Z,-1.19
2016-12-05T03:50:08.358Z,-1.17
2016-12-05T03:51:08.978Z,-1.19
2016-12-05T03:52:09.598Z,-1.2
2016-12-05T03:53:10.220Z,-1.29
2016-12-05T03:54:10.843Z,-1.17
2016-12-05T03:55:11.467Z,-1.25
2016-12-05T03:56:12.143Z,-1.27
2016-12-05T03:57:12.790Z,-1.17
2016-12-05T03:58:13.445Z,-1.19
2016-12-05T03:59:14.091Z,-1.27
2016-12-05T04:00:14.733Z,-1.25
2016-12-05T04:01:15.400Z,-1.26
2016-12-05T04:02:16.014Z,-1.23
2016-12-05T04:03:16.662Z,-1.33
2016-12-05T04:04:17.259Z,-1.2
2016-12-05T04:05:17.879Z,-1.3
2016-12-05T04:06:18.502Z,-1.32
2016-12-05T04:07:19.135Z,-1.33
2016-12-05T04:08:19.754Z,-1.33
2016-12-05T04:09:20.369Z,-1.43
2016-12-05T04:10:20.990Z,-1.35
2016-12-05T04:11:21.679Z,-1.37
2016-12-05T04:12:22.333Z,-1.32
2016-12-05T04:13:22.965Z,-1.4
2016-12-05T04:14:23.573Z,-1.35
2016-12-05T04:15:24.186Z,-1.37
2016-12-05T04:16:24.806Z,-1.37
2016-12-05T04:17:25.432Z,-1.33
2016-12-05T04:18:26.048Z,-1.29
2016-12-05T04:19:26.674Z,-1.37
2016-12-05T04:20:27.317Z,-1.35
2016-12-05T04:21:27.940Z,-1.29
2016-12-05T04:22:28.548Z,-1.38
2016-12-05T04:23:29.191Z,-1.43
2016-12-05T04:24:29.839Z,-1.37
2016-12-05T04:25:30.463Z,-1.38
2016-12-05T04:26:31.081Z,-1.4
2016-12-05T04:27:31.688Z,-1.33
2016-12-05T04:28:32.331Z,-1.4
2016-12-05T04:29:32.927Z,-1.37
2016-12-05T04:30:33.554Z,-1.33
2016-12-05T04:31:34.194Z,-1.37
2016-12-05T04:32:34.804Z,-1.47
2016-12-05T04:33:35.432Z,-1.5
2016-12-05T04:34:36.097Z,-1.43
2016-12-05T04:35:36.718Z,-1.48
2016-12-05T04:36:37.337Z,-1.46
2016-12-05T04:37:37.952Z,-1.53
2016-12-05T04:38:38.591Z,-1.43
2016-12-05T04:39:39.212Z,-1.4
2016-12-05T04:40:39.828Z,-1.5
2016-12-05T04:41:40.444Z,-1.48
2016-12-05T04:42:41.055Z,-1.38
2016-12-05T04:43:41.690Z,-1.41
2016-12-05T04:44:42.307Z,-1.5
2016-12-05T04:45:42.931Z,-1.43
2016-12-05T04:46:43.547Z,-1.56
2016-12-05T04:47:44.171Z,-1.53
2016-12-05T04:48:44.828Z,-1.44
2016-12-05T04:49:45.472Z,-1.66
2016-12-05T04:50:46.128Z,-1.58
2016-12-05T04:51:46.761Z,-1.66
2016-12-05T04:52:47.365Z,-1.64
2016-12-05T04:53:47.993Z,-1.66
2016-12-05T04:54:48.625Z,-1.69
2016-12-05T04:55:49.234Z,-1.66
2016-12-05T04:56:49.849Z,-1.71
2016-12-05T04:57:50.522Z,-1.69
2016-12-05T04:58:51.147Z,-1.65
2016-12-05T04:59:51.781Z,-1.64
2016-12-05T05:00:52.389Z,-1.69
2016-12-05T05:01:53.016Z,-1.58
2016-12-05T05:02:53.647Z,-1.53
2016-12-05T05:03:54.275Z,-1.66
2016-12-05T05:04:54.895Z,-1.77
2016-12-05T05:05:55.509Z,-1.82
2016-12-05T05:06:56.143Z,-1.74
2016-12-05T05:07:56.776Z,-1.82
2016-12-05T05:08:57.397Z,-1.86
2016-12-05T05:09:58.034Z,-1.82
2016-12-05T05:10:58.657Z,-1.79
2016-12-05T05:11:59.286Z,-1.83
2016-12-05T05:12:59.903Z,-1.82
2016-12-05T05:14:00.528Z,-1.74
2016-12-05T05:15:01.147Z,-1.82
2016-12-05T05:16:01.760Z,-1.72
2016-12-05T05:17:02.404Z,-1.83
2016-12-05T05:18:03.004Z,-1.86
2016-12-05T05:19:03.622Z,-1.89
2016-12-05T05:20:04.237Z,-1.82
2016-12-05T05:21:04.860Z,-1.87
2016-12-05T05:22:05.482Z,-1.86
2016-12-05T05:23:06.095Z,-1.82
2016-12-05T05:24:06.735Z,-1.84
2016-12-05T05:25:07.354Z,-1.95
2016-12-05T05:26:07.980Z,-1.97
2016-12-05T05:27:08.597Z,-1.98
2016-12-05T05:28:09.231Z,-2.04
2016-12-05T05:29:09.840Z,-2.01
2016-12-05T05:30:10.465Z,-1.98
2016-12-05T05:31:11.087Z,-1.98
2016-12-05T05:32:11.703Z,-1.84
2016-12-05T05:33:12.328Z,-1.87
2016-12-05T05:34:12.957Z,-1.94
2016-12-05T05:35:13.586Z,-1.86
2016-12-05T05:36:14.187Z,-1.92
2016-12-05T05:37:14.803Z,-1.97
2016-12-05T05:38:15.427Z,-2.04
2016-12-05T05:39:16.061Z,-2.01
2016-12-05T05:40:16.697Z,-2
2016-12-05T05:41:17.335Z,-1.97
2016-12-05T05:42:17.945Z,-1.97
2016-12-05T05:43:18.563Z,-2.1
2016-12-05T05:44:19.184Z,-2.05
2016-12-05T05:45:19.796Z,-2.07
2016-12-05T05:46:20.418Z,-2.04
2016-12-05T05:47:21.041Z,-2.08
2016-12-05T05:48:21.649Z,-2.07
2016-12-05T05:49:22.280Z,-2.15
2016-12-05T05:50:22.901Z,-2.15
2016-12-05T05:51:23.509Z,-2.08
2016-12-05T05:52:24.139Z,-2.16
2016-12-05T05:53:24.751Z,-2.13
2016-12-05T05:54:25.365Z,-2.18
2016-12-05T05:55:25.992Z,-2.21
2016-12-05T05:56:26.638Z,-2.21
2016-12-05T05:57:27.247Z,-2.13
2016-12-05T05:58:27.876Z,-2.18
2016-12-05T05:59:28.483Z,-2.22
2016-12-05T06:00:29.175Z,-2.23
2016-12-05T06:01:29.798Z,-2.15
2016-12-05T06:02:30.410Z,-2.21
2016-12-05T06:03:31.045Z,-2.25
2016-12-05T06:04:31.663Z,-2.16
2016-12-05T06:05:32.326Z,-2.19
2016-12-05T06:06:32.950Z,-2.16
2016-12-05T06:07:33.561Z,-2.18
2016-12-05T06:08:34.197Z,-2.22
2016-12-05T06:09:34.805Z,-2.23
2016-12-05T06:10:35.426Z,-2.22
2016-12-05T06:11:36.058Z,-2.21
2016-12-05T06:12:36.681Z,-2.19
2016-12-05T06:13:37.284Z,-2.21
2016-12-05T06:14:37.916Z,-2.19
2016-12-05T06:15:38.535Z,-2.22
2016-12-05T06:16:39.159Z,-2.22
2016-12-05T06:17:39.771Z,-2.19
2016-12-05T06:18:40.397Z,-2.19
2016-12-05T06:19:41.013Z,-2.22
2016-12-05T06:20:41.649Z,-2.23
2016-12-05T06:21:42.259Z,-2.15
2016-12-05T06:22:42.867Z,-2.15
2016-12-05T06:23:43.500Z,-2.19
2016-12-05T06:24:44.113Z,-2.07
2016-12-05T06:25:44.732Z,-2.07
2016-12-05T06:26:45.337Z,-2.05
2016-12-05T06:27:45.982Z,-2.05
2016-12-05T06:28:46.587Z,-2.01
2016-12-05T06:29:47.203Z,-2.02
2016-12-05T06:30:47.842Z,-2
2016-12-05T06:31:48.446Z,-2.04
2016-12-05T06:32:49.094Z,-2
2016-12-05T06:33:49.695Z,-2.05
2016-12-05T06:34:50.326Z,-2.04
2016-12-05T06:35:50.938Z,-2
2016-12-05T06:36:51.597Z,-2.1
2016-12-05T06:37:52.231Z,-2.01
2016-12-05T06:38:52.852Z,-1.98
2016-12-05T06:39:53.680Z,-2
2016-12-05T06:40:54.301Z,-2.01
2016-12-05T06:41:54.946Z,-2.01
2016-12-05T06:42:55.558Z,-2.04
2016-12-05T06:43:56.178Z,-2.05
2016-12-05T06:44:56.788Z,-1.98
2016-12-05T06:45:57.403Z,-1.97
2016-12-05T06:46:58.050Z,-1.98
2016-12-05T06:47:58.672Z,-2.04
2016-12-05T06:48:59.290Z,-2.04
2016-12-05T06:49:59.923Z,-2.04
2016-12-05T06:51:00.555Z,-2.08
2016-12-05T06:52:01.173Z,-2.04
2016-12-05T06:53:01.922Z,-2.13
2016-12-05T06:54:02.539Z,-2.05
2016-12-05T06:55:03.155Z,-2.13
2016-12-05T06:56:03.770Z,-2.05
2016-12-05T06:57:04.381Z,-2.08
2016-12-05T06:58:05.002Z,-2.07
2016-12-05T06:59:05.620Z,-2.05
2016-12-05T07:00:06.246Z,-2.1
2016-12-05T07:01:06.863Z,-2.07
2016-12-05T07:02:07.496Z,-2.13
2016-12-05T07:03:08.162Z,-2.07
2016-12-05T07:04:08.771Z,-2.21
2016-12-05T07:05:09.404Z,-2.18
2016-12-05T07:06:10.021Z,-2.08
2016-12-05T07:07:10.636Z,-2.04
2016-12-05T07:08:11.254Z,-2.08
2016-12-05T07:09:11.864Z,-2.12
2016-12-05T07:10:12.479Z,-2.07
2016-12-05T07:11:13.091Z,-2.02
2016-12-05T07:12:13.703Z,-2.08
2016-12-05T07:13:14.359Z,-2.05
2016-12-05T07:14:14.990Z,-2.04
2016-12-05T07:15:15.604Z,-2.08
2016-12-05T07:16:16.212Z,-2.07
2016-12-05T07:17:16.854Z,-2.04
2016-12-05T07:18:17.490Z,-2.05
2016-12-05T07:19:18.100Z,-2
2016-12-05T07:20:18.717Z,-2.08
2016-12-05T07:21:19.341Z,-2.02
2016-12-05T07:22:19.953Z,-1.94
2016-12-05T07:23:20.565Z,-1.98
2016-12-05T07:24:21.212Z,-1.98
2016-12-05T07:25:21.881Z,-1.98
2016-12-05T07:26:22.449Z,-2
2016-12-05T07:27:23.077Z,-1.89
2016-12-05T07:28:23.694Z,-1.83
2016-12-05T07:29:24.346Z,-1.8
2016-12-05T07:30:24.968Z,-1.87
2016-12-05T07:31:25.626Z,-1.84
2016-12-05T07:32:26.297Z,-1.89
2016-12-05T07:33:26.919Z,-1.83
2016-12-05T07:34:27.557Z,-1.9
2016-12-05T07:35:28.200Z,-1.84
2016-12-05T07:36:28.883Z,-1.9
2016-12-05T07:37:29.536Z,-1.89
2016-12-05T07:38:30.151Z,-1.89
2016-12-05T07:39:30.809Z,-1.83
2016-12-05T07:40:31.456Z,-1.87
2016-12-05T07:41:32.111Z,-1.84
2016-12-05T07:42:32.739Z,-1.8
2016-12-05T07:43:33.376Z,-1.86
2016-12-05T07:44:34.044Z,-1.86
2016-12-05T07:45:34.668Z,-1.82
2016-12-05T07:46:35.290Z,-1.84
2016-12-05T07:47:35.937Z,-1.82
2016-12-05T07:48:36.600Z,-1.89
2016-12-05T07:49:37.247Z,-1.86
2016-12-05T07:50:37.865Z,-1.76
2016-12-05T07:51:38.512Z,-1.8
2016-12-05T07:52:39.183Z,-1.72
2016-12-05T07:53:39.927Z,-1.72
2016-12-05T07:54:40.577Z,-1.71
2016-12-05T07:55:41.215Z,-1.64
2016-12-05T07:56:41.825Z,-1.76
2016-12-05T07:57:42.444Z,-1.83
2016-12-05T07:58:43.133Z,-1.68
2016-12-05T07:59:43.781Z,-1.65
2016-12-05T08:00:44.461Z,-1.66
2016-12-05T08:01:45.151Z,-1.61
2016-12-05T08:02:45.869Z,-1.64
2016-12-05T08:03:46.494Z,-1.51
2016-12-05T08:04:47.148Z,-1.61
2016-12-05T08:05:47.779Z,-1.62
2016-12-05T08:06:48.446Z,-1.66
2016-12-05T08:07:49.073Z,-1.66
2016-12-05T08:08:49.692Z,-1.61
2016-12-05T08:09:50.313Z,-1.62
2016-12-05T08:10:50.979Z,-1.65
2016-12-05T08:11:51.594Z,-1.58
2016-12-05T08:12:52.240Z,-1.54
2016-12-05T08:13:52.936Z,-1.47
2016-12-05T08:14:53.557Z,-1.44
2016-12-05T08:15:54.162Z,-1.41
2016-12-05T08:16:54.800Z,-1.48
2016-12-05T08:17:55.428Z,-1.41
2016-12-05T08:18:56.038Z,-1.35
2016-12-05T08:19:56.670Z,-1.29
2016-12-05T08:20:57.286Z,-1.33
2016-12-05T08:21:57.944Z,-1.41
2016-12-05T08:22:58.567Z,-1.33
2016-12-05T08:23:59.182Z,-1.44
2016-12-05T08:24:59.833Z,-1.41
2016-12-05T08:26:00.483Z,-1.46
2016-12-05T08:27:01.121Z,-1.4
2016-12-05T08:28:01.736Z,-1.43
2016-12-05T08:29:02.404Z,-1.43
2016-12-05T08:30:03.019Z,-1.38
2016-12-05T08:31:03.641Z,-1.41
2016-12-05T08:32:04.279Z,-1.37
2016-12-05T08:33:04.905Z,-1.27
2016-12-05T08:34:05.525Z,-1.3
2016-12-05T08:35:06.142Z,-1.27
2016-12-05T08:36:06.758Z,-1.15
2016-12-05T08:37:07.385Z,-1.19
2016-12-05T08:38:07.997Z,-1.14
2016-12-05T08:39:08.612Z,-1.29
2016-12-05T08:40:09.223Z,-1.22
2016-12-05T08:41:09.849Z,-1.23
2016-12-05T08:42:10.485Z,-1.2
2016-12-05T08:43:11.117Z,-1.25
2016-12-05T08:44:11.739Z,-1.22
2016-12-05T08:45:12.358Z,-1.2
2016-12-05T08:46:12.972Z,-1.22
2016-12-05T08:47:13.577Z,-1.15
2016-12-05T08:48:14.202Z,-1.3
2016-12-05T08:49:14.812Z,-1.35
2016-12-05T08:50:15.428Z,-1.33
2016-12-05T08:51:16.051Z,-1.32
2016-12-05T08:52:16.684Z,-1.29
2016-12-05T08:53:17.327Z,-1.32
2016-12-05T08:54:17.955Z,-1.3
2016-12-05T08:55:18.576Z,-1.22
2016-12-05T08:56:19.196Z,-1.17
2016-12-05T08:57:19.836Z,-1.2
2016-12-05T08:58:20.455Z,-1.23
2016-12-05T08:59:21.088Z,-1.25
2016-12-05T09:00:21.725Z,-1.26
2016-12-05T09:01:22.369Z,-1.22
2016-12-05T09:02:22.984Z,-1.2
2016-12-05T09:03:23.599Z,-1.2
2016-12-05T09:04:24.210Z,-1.25
2016-12-05T09:05:24.849Z,-1.2
2016-12-05T09:06:25.467Z,-1.26
2016-12-05T09:07:26.095Z,-1.19
2016-12-05T09:08:26.732Z,-1.08
2016-12-05T09:09:27.382Z,-1.02
2016-12-05T09:10:27.993Z,-1.08
2016-12-05T09:11:28.632Z,-1.05
2016-12-05T09:12:29.270Z,-1.05
2016-12-05T09:13:29.910Z,-0.94
2016-12-05T09:14:30.533Z,-0.97
2016-12-05T09:15:31.152Z,-0.91
2016-12-05T09:16:31.773Z,-0.91
2016-12-05T09:17:32.396Z,-0.89
2016-12-05T09:18:33.027Z,-0.94
2016-12-05T09:19:33.680Z,-0.86
2016-12-05T09:20:34.301Z,-0.94
2016-12-05T09:21:34.912Z,-0.83
2016-12-05T09:22:35.549Z,-0.91
2016-12-05T09:23:36.162Z,-0.89
2016-12-05T09:24:36.801Z,-0.82
2016-12-05T09:25:37.422Z,-0.82
2016-12-05T09:26:38.063Z,-0.74
2016-12-05T09:27:38.689Z,-0.7
2016-12-05T09:28:39.322Z,-0.72
2016-12-05T09:29:39.941Z,-0.75
2016-12-05T09:30:40.550Z,-0.68
2016-12-05T09:31:41.183Z,-0.72
2016-12-05T09:32:41.803Z,-0.71
2016-12-05T09:33:42.418Z,-0.68
2016-12-05T09:34:43.060Z,-0.71
2016-12-05T09:35:43.729Z,-0.67
2016-12-05T09:36:44.381Z,-0.64
2016-12-05T09:37:45.014Z,-0.62
2016-12-05T09:38:45.651Z,-0.57
2016-12-05T09:39:46.309Z,-0.53
2016-12-05T09:40:46.967Z,-0.5
2016-12-05T09:41:47.614Z,-0.56
2016-12-05T09:42:48.266Z,-0.56
2016-12-05T09:43:48.909Z,-0.61
2016-12-05T09:44:49.563Z,-0.43
2016-12-05T09:45:50.239Z,-0.47
2016-12-05T09:46:50.891Z,-0.46
2016-12-05T09:47:51.507Z,-0.39
2016-12-05T09:48:52.231Z,-0.38
2016-12-05T09:49:52.890Z,-0.35
2016-12-05T09:50:53.518Z,-0.34
2016-12-05T09:51:54.210Z,-0.38
2016-12-05T09:52:54.817Z,-0.29
2016-12-05T09:53:55.448Z,-0.31
2016-12-05T09:54:56.119Z,-0.28
2016-12-05T09:55:56.707Z,-0.26
2016-12-05T09:56:57.367Z,-0.29
2016-12-05T09:57:58.001Z,-0.21
2016-12-05T09:58:58.630Z,-0.21
2016-12-05T09:59:59.291Z,-0.28
2016-12-05T10:00:59.955Z,-0.14
2016-12-05T10:02:00.597Z,-0.13
2016-12-05T10:03:01.248Z,-0.2
2016-12-05T10:04:01.909Z,-0.2
2016-12-05T10:05:02.556Z,-0.2
2016-12-05T10:06:03.202Z,-0.13
2016-12-05T10:07:03.843Z,-0.2
2016-12-05T10:08:04.484Z,-0.08
2016-12-05T10:09:05.126Z,-0.14
2016-12-05T10:10:05.768Z,-0.07
2016-12-05T10:11:06.401Z,-0.13
2016-12-05T10:12:07.053Z,0.01
2016-12-05T10:13:07.681Z,-0.02
2016-12-05T10:14:08.318Z,0.01
2016-12-05T10:15:08.975Z,-0.06
2016-12-05T10:16:09.610Z,0
2016-12-05T10:17:10.248Z,-0.02
2016-12-05T10:18:10.895Z,0.01
2016-12-05T10:19:11.551Z,0
2016-12-05T10:20:12.182Z,0.05
2016-12-05T10:21:12.815Z,0.01
2016-12-05T10:22:13.463Z,0
2016-12-05T10:23:14.070Z,0.04
2016-12-05T10:24:14.701Z,0.11
2016-12-05T10:25:15.422Z,0.11
2016-12-05T10:26:16.023Z,0.08
2016-12-05T10:27:16.667Z,0.16
2016-12-05T10:28:17.316Z,0.03
2016-12-05T10:29:17.943Z,0.1
2016-12-05T10:30:18.568Z,0.21
2016-12-05T10:31:19.212Z,0.12
2016-12-05T10:32:19.897Z,0.21
2016-12-05T10:33:40.419Z,0.16
2016-12-05T10:34:41.012Z,0.11
2016-12-05T10:35:41.656Z,0.12
2016-12-05T10:36:42.290Z,0.29
2016-12-05T10:37:42.932Z,0.25
2016-12-05T10:38:43.600Z,0.28
2016-12-05T10:39:44.210Z,0.32
2016-12-05T10:40:44.841Z,0.21
2016-12-05T10:41:45.486Z,0.26
2016-12-05T10:42:46.105Z,0.28
2016-12-05T10:43:46.738Z,0.26
2016-12-05T10:44:47.374Z,0.39
2016-12-05T10:45:48.009Z,0.36
2016-12-05T10:46:48.639Z,0.32
2016-12-05T10:47:49.270Z,0.34
2016-12-05T10:48:49.925Z,0.34
2016-12-05T10:49:50.566Z,0.31
2016-12-05T10:50:51.210Z,0.37
2016-12-05T10:51:51.884Z,0.39
2016-12-05T10:52:52.482Z,0.46
2016-12-05T10:53:53.133Z,0.39
2016-12-05T10:54:53.784Z,0.46
2016-12-05T10:55:54.465Z,0.5
2016-12-05T10:56:55.062Z,0.5
2016-12-05T10:57:55.705Z,0.52
2016-12-05T10:58:56.361Z,0.56
2016-12-05T10:59:56.999Z,0.59
2016-12-05T11:00:57.635Z,0.6
2016-12-05T11:01:58.262Z,0.63
2016-12-05T11:02:58.904Z,0.6
2016-12-05T11:03:59.537Z,0.66
2016-12-05T11:05:00.158Z,0.73
2016-12-05T11:06:00.804Z,0.68
2016-12-05T11:07:01.451Z,0.73
2016-12-05T11:08:02.089Z,0.65
2016-12-05T11:09:02.786Z,0.81
2016-12-05T11:10:03.399Z,0.86
2016-12-05T11:11:04.007Z,0.88
2016-12-05T11:12:04.650Z,0.81
2016-12-05T11:13:05.288Z,0.88
2016-12-05T11:14:05.918Z,0.86
2016-12-05T11:15:06.560Z,0.88
2016-12-05T11:16:07.213Z,0.98
2016-12-05T11:17:07.845Z,0.95
2016-12-05T11:18:08.483Z,1.01
2016-12-05T11:19:09.145Z,1.02
2016-12-05T11:20:09.770Z,0.98
2016-12-05T11:21:10.456Z,1.05
2016-12-05T11:22:11.078Z,1.05
2016-12-05T11:23:11.744Z,1.02
2016-12-05T11:24:12.407Z,1.12
2016-12-05T11:25:13.055Z,1.1
2016-12-05T11:26:13.709Z,1.04
2016-12-05T11:27:14.352Z,1.1
2016-12-05T11:28:14.999Z,1.08
2016-12-05T11:29:15.634Z,1.16
2016-12-05T11:30:16.288Z,1.13
2016-12-05T11:31:16.921Z,1.17
2016-12-05T11:32:17.545Z,1.22
2016-12-05T11:33:18.255Z,1.2
2016-12-05T11:34:18.840Z,1.2
2016-12-05T11:35:19.494Z,1.2
2016-12-05T11:36:20.172Z,1.28
2016-12-05T11:37:20.806Z,1.35
2016-12-05T11:38:21.460Z,1.35
2016-12-05T11:39:22.114Z,1.35
2016-12-05T11:40:22.750Z,1.31
2016-12-05T11:41:23.403Z,1.49
2016-12-05T11:42:24.030Z,1.45
2016-12-05T11:43:24.689Z,1.44
2016-12-05T11:44:25.338Z,1.44
2016-12-05T11:45:25.970Z,1.35
2016-12-05T11:46:26.607Z,1.48
2016-12-05T11:47:27.240Z,1.53
2016-12-05T11:48:27.893Z,1.53
2016-12-05T11:49:28.555Z,1.56
2016-12-05T11:50:29.280Z,1.53
2016-12-05T11:51:29.929Z,1.59
2016-12-05T11:52:30.563Z,1.68
2016-12-05T11:53:31.204Z,1.66
2016-12-05T11:54:31.852Z,1.63
2016-12-05T11:55:32.471Z,1.66
2016-12-05T11:56:33.131Z,1.68
2016-12-05T11:57:33.766Z,1.62
2016-12-05T11:58:34.398Z,1.78
2016-12-05T11:59:35.019Z,1.63
2016-12-05T12:00:35.646Z,1.66
2016-12-05T12:01:36.276Z,1.67
2016-12-05T12:02:36.914Z,1.78
2016-12-05T12:03:37.564Z,1.76
2016-12-05T12:04:38.210Z,1.84
2016-12-05T12:05:38.829Z,1.73
2016-12-05T12:06:39.455Z,1.84
2016-12-05T12:07:40.092Z,1.85
2016-12-05T12:08:40.723Z,1.84
2016-12-05T12:09:41.348Z,1.85
2016-12-05T12:10:41.975Z,1.8
2016-12-05T12:11:42.602Z,1.88
2016-12-05T12:12:43.230Z,1.85
2016-12-05T12:13:43.855Z,1.73
2016-12-05T12:14:44.489Z,1.8
2016-12-05T12:15:45.119Z,1.74
2016-12-05T12:16:45.738Z,1.87
2016-12-05T12:17:46.364Z,1.77
2016-12-05T12:18:46.992Z,1.84
2016-12-05T12:19:47.619Z,1.84
2016-12-05T12:20:48.259Z,1.85
2016-12-05T12:21:48.885Z,1.91
2016-12-05T12:22:49.525Z,1.87
2016-12-05T12:23:50.183Z,1.89
2016-12-05T12:24:50.798Z,1.99
2016-12-05T12:25:51.420Z,1.97
2016-12-05T12:26:52.059Z,1.92
2016-12-05T12:27:52.694Z,1.97
2016-12-05T12:28:53.323Z,1.97
2016-12-05T12:29:53.951Z,1.97
2016-12-05T12:30:54.578Z,1.95
2016-12-05T12:31:55.198Z,2.04
2016-12-05T12:32:55.835Z,1.97
2016-12-05T12:33:56.459Z,1.91
2016-12-05T12:34:57.085Z,2.04
2016-12-05T12:35:57.705Z,2.11
2016-12-05T12:36:58.320Z,2.02
2016-12-05T12:37:58.951Z,1.97
2016-12-05T12:38:59.588Z,2.06
2016-12-05T12:40:00.249Z,2.02
2016-12-05T12:41:00.859Z,1.99
2016-12-05T12:42:01.510Z,2.02
2016-12-05T12:43:02.160Z,1.97
2016-12-05T12:44:02.798Z,1.94
2016-12-05T12:45:03.430Z,2
2016-12-05T12:46:04.095Z,2.07
2016-12-05T12:47:04.745Z,2
2016-12-05T12:48:05.402Z,1.99
2016-12-05T12:49:06.018Z,2.02
2016-12-05T12:50:06.683Z,2.04
2016-12-05T12:51:07.298Z,2.07
2016-12-05T12:52:07.928Z,2.07
2016-12-05T12:53:08.578Z,2.02
2016-12-05T12:54:09.246Z,2.1
2016-12-05T12:55:09.948Z,2.11
2016-12-05T12:56:10.602Z,2.08
2016-12-05T12:57:11.213Z,2.13
2016-12-05T12:58:11.850Z,2.13
2016-12-05T12:59:12.482Z,2.15
2016-12-05T13:00:13.157Z,2.18
2016-12-05T13:01:13.882Z,2.18
2016-12-05T13:02:14.563Z,2.25
2016-12-05T13:03:15.284Z,2.17
2016-12-05T13:04:15.907Z,2.26
2016-12-05T13:05:16.667Z,2.24
2016-12-05T13:06:17.400Z,2.24
2016-12-05T13:07:18.024Z,2.26
2016-12-05T13:08:18.682Z,2.28
2016-12-05T13:09:19.859Z,2.26
2016-12-05T13:10:20.506Z,2.32
2016-12-05T13:11:21.137Z,2.26
2016-12-05T13:12:21.779Z,2.31